Details From EPSY - SZYMANY
To EPKK - BALICE
Flight Number -
Tags generated
Created
Modified
Stats Distance 209 nm / 387 km
Max Altitude 28,500 ft / 8,687 m
Waypoints 4
Social Downloads 1
Likes 0
Share VATSIM

Download

Looking for another format? Having issues loading an existing format? Contact us
Advertisement - Login to hide

Notes

Basic altitude profile: - Ascent Rate: 2500ft/min - Ascent Speed: 250kts - Cruise Altitude: 35000ft - Cruise Speed: 420kts - Descent Rate: 1500ft/min - Descent Speed: 250kts Options: - Use NATs: yes - Use PACOTS: yes - Use low airways: yes - Use high airways: yes

Route

EPSY KRN UN744 DEDOL EPKK

ID Type Via Altitude Latitude Longitude Leg Dist Tot Dist Heading (true) Name
O EPSY APT - 0 ft / 0 m 53.47973˚ 20.93650˚ - 0 nm - SZYMANY
KRN VOR - 24,700 ft / 7,529 m 51.94624˚ 20.44462˚ 93 nm 93 nm 191° / 191° KARNICE VOR-DME
DEDOL FIX UN744 (AWY-HI) 28,500 ft / 8,687 m 51.38778˚ 20.36000˚ 33 nm 127 nm 185° / 185° -
O EPKK APT - 0 ft / 0 m 50.07782˚ 19.78550˚ 81 nm 209 nm 196° / 195° BALICE

Altitude Profile

Advertisement - Login to hide

Weather


0- 5 10 15 20 25 30 35+ Temperature / ° C

Clouds and Precipitation
Forecast for 2017-12-17 18:00 UTC. Updated an hour ago

Ground ~20,000 ft ~40,000 ft Winds

EPSY

Details ICAO EPSY
Name SZYMANY
Region Poland
Timezone Europe/Warsaw (UTC+1.0)
Stats Elevation 463 ft / 141 m (AMSL)
Location 53.479731° 20.936497°
Runways 1
Magnetic Variation 6.016° E

METAR

EPSY 171400Z VRB02KT 9999 BKN014 00/M01 Q1017 R01/19//95

Decode

TAF

Not found

Departure Runways

ID Width Length Bearing (true) Bearing (mag) Surface Threshold Offset Overrun Length
02 197 ft / 60 m 6,556 ft / 1,998 m 18.43° 12.41° Concrete 0 ft / 0 m 0 ft / 0 m
20 197 ft / 60 m 6,556 ft / 1,998 m 198.43° 192.41° Concrete 0 ft / 0 m 0 ft / 0 m

EPKK

Details ICAO EPKK (KRK)
Name BALICE
Region Poland
Timezone Europe/Warsaw (UTC+1.0)
Stats Elevation 791 ft / 241 m (AMSL)
Location 50.077821° 19.785503°
Runways 1
Magnetic Variation 5.203° E

METAR

EPKK 171400Z VRB02KT 8000 BKN050 02/M01 Q1017 R25/1///95

Decode

TAF

TAF EPKK 171130Z 1712/1812 VRB02KT 5000 BR BKN020 TEMPO 1715/1812 2000 -SN BR BKN008 PROB40 1721/1807 0600 FZFG BKN002

Decode

Destination Runways

ID Width Length Bearing (true) Bearing (mag) Surface Threshold Offset Overrun Length
07 197 ft / 60 m 8,343 ft / 2,543 m 77.75° 72.55° Concrete 0 ft / 0 m 0 ft / 0 m
25 197 ft / 60 m 8,343 ft / 2,543 m 257.77° 252.57° Concrete 784 ft / 239 m 0 ft / 0 m

Approach Navaids

Runway Type Ident Frequency Range Bearing (true) Bearing (mag) Slope Elevation
25 Localiser KRW 110.30 MHz 18 nm / 33 km 257.73° 252.53° - 791 ft / 241 m (AMSL)
25 Glidescope KRW 110.30 MHz 10 nm / 19 km 257.76° 252.56° 3.00° 791 ft / 241 m (AMSL)
25 DME KRW 110.30 MHz 18 nm / 33 km - - - 827 ft / 252 m (AMSL)

Popular Alternatives